createdAt,value
2023-01-08T00:00:31.395Z,984.81
2023-01-08T00:01:31.366Z,984.78
2023-01-08T00:02:31.362Z,984.70
2023-01-08T00:03:31.491Z,984.76
2023-01-08T00:04:31.313Z,984.75
2023-01-08T00:05:31.385Z,984.73
2023-01-08T00:06:31.330Z,984.82
2023-01-08T00:07:31.273Z,984.81
2023-01-08T00:08:31.276Z,984.79
2023-01-08T00:09:31.260Z,984.78
2023-01-08T00:10:31.249Z,984.68
2023-01-08T00:11:31.256Z,984.66
2023-01-08T00:12:31.221Z,984.63
2023-01-08T00:13:31.238Z,984.65
2023-01-08T00:14:31.232Z,984.60
2023-01-08T00:15:31.191Z,984.60
2023-01-08T00:16:31.250Z,984.62
2023-01-08T00:17:31.198Z,984.50
2023-01-08T00:18:31.164Z,984.52
2023-01-08T00:19:31.176Z,984.49
2023-01-08T00:20:31.146Z,984.59
2023-01-08T00:21:31.187Z,984.56
2023-01-08T00:22:31.126Z,984.60
2023-01-08T00:23:31.101Z,984.55
2023-01-08T00:24:31.107Z,984.47
2023-01-08T00:25:31.093Z,984.52
2023-01-08T00:26:31.109Z,984.43
2023-01-08T00:27:31.088Z,984.51
2023-01-08T00:28:31.064Z,984.50
2023-01-08T00:29:31.059Z,984.49
2023-01-08T00:30:31.114Z,984.56
2023-01-08T00:31:31.031Z,984.49
2023-01-08T00:32:31.048Z,984.49
2023-01-08T00:33:31.017Z,984.52
2023-01-08T00:34:31.048Z,984.55
2023-01-08T00:35:30.990Z,984.57
2023-01-08T00:36:30.987Z,984.54
2023-01-08T00:37:31.103Z,984.59
2023-01-08T00:38:30.977Z,984.52
2023-01-08T00:39:30.947Z,984.51
2023-01-08T00:40:30.949Z,984.51
2023-01-08T00:41:30.945Z,984.49
2023-01-08T00:42:30.949Z,984.43
2023-01-08T00:43:30.930Z,984.43
2023-01-08T00:44:30.905Z,984.38
2023-01-08T00:45:30.964Z,984.30
2023-01-08T00:46:30.880Z,984.29
2023-01-08T00:47:30.883Z,984.27
2023-01-08T00:48:30.868Z,984.30
2023-01-08T00:49:30.856Z,984.27
2023-01-08T00:50:30.862Z,984.21
2023-01-08T00:51:30.837Z,984.24
2023-01-08T00:52:30.858Z,984.24
2023-01-08T00:53:30.819Z,984.34
2023-01-08T00:54:30.808Z,984.29
2023-01-08T00:55:30.813Z,984.21
2023-01-08T00:56:30.789Z,984.25
2023-01-08T00:57:30.806Z,984.26
2023-01-08T00:58:30.780Z,984.28
2023-01-08T00:59:30.749Z,984.30
2023-01-08T01:00:30.765Z,984.29
2023-01-08T01:01:30.852Z,984.26
2023-01-08T01:02:30.747Z,984.28
2023-01-08T01:03:30.717Z,984.21
2023-01-08T01:04:30.754Z,984.22
2023-01-08T01:05:30.723Z,984.13
2023-01-08T01:06:30.688Z,984.17
2023-01-08T01:07:30.705Z,984.17
2023-01-08T01:08:30.679Z,984.18
2023-01-08T01:09:30.736Z,984.15
2023-01-08T01:10:30.658Z,984.20
2023-01-08T01:11:30.635Z,984.18
2023-01-08T01:12:30.650Z,984.09
2023-01-08T01:13:30.615Z,984.11
2023-01-08T01:14:30.607Z,984.01
2023-01-08T01:15:30.600Z,984.07
2023-01-08T01:16:30.670Z,984.07
2023-01-08T01:17:30.643Z,984.03
2023-01-08T01:18:30.565Z,984.01
2023-01-08T01:19:30.562Z,983.97
2023-01-08T01:20:30.548Z,984.05
2023-01-08T01:21:30.544Z,984.02
2023-01-08T01:22:30.543Z,984.01
2023-01-08T01:23:30.521Z,984.07
2023-01-08T01:24:30.499Z,984.03
2023-01-08T01:25:30.574Z,984.07
2023-01-08T01:26:30.504Z,984.10
2023-01-08T01:27:30.491Z,984.02
2023-01-08T01:28:30.466Z,984.05
2023-01-08T01:29:30.463Z,984.07
2023-01-08T01:30:30.489Z,984.09
2023-01-08T01:31:30.442Z,984.14
2023-01-08T01:32:30.440Z,984.21
2023-01-08T01:33:30.420Z,984.28
2023-01-08T01:34:30.400Z,984.25
2023-01-08T01:35:30.384Z,984.24
2023-01-08T01:36:30.376Z,984.26
2023-01-08T01:37:30.384Z,984.25
2023-01-08T01:38:30.361Z,984.23
2023-01-08T01:39:30.346Z,984.25
2023-01-08T01:40:30.333Z,984.27
2023-01-08T01:41:30.412Z,984.26
2023-01-08T01:42:30.328Z,984.31
2023-01-08T01:43:30.295Z,984.30
2023-01-08T01:44:30.299Z,984.31
2023-01-08T01:45:30.333Z,984.29
2023-01-08T01:46:30.278Z,984.31
2023-01-08T01:47:30.273Z,984.37
2023-01-08T01:48:30.256Z,984.25
2023-01-08T01:49:30.254Z,984.27
2023-01-08T01:50:30.235Z,984.30
2023-01-08T01:51:30.219Z,984.29
2023-01-08T01:52:30.238Z,984.25
2023-01-08T01:53:30.210Z,984.32
2023-01-08T01:54:30.191Z,984.28
2023-01-08T01:55:30.181Z,984.30
2023-01-08T01:56:30.178Z,984.33
2023-01-08T01:57:30.276Z,984.30
2023-01-08T01:58:30.165Z,984.32
2023-01-08T01:59:30.154Z,984.22
2023-01-08T02:00:30.146Z,984.30
2023-01-08T02:01:30.286Z,984.29
2023-01-08T02:02:30.177Z,984.25
2023-01-08T02:03:30.109Z,984.26
2023-01-08T02:04:30.101Z,984.19
2023-01-08T02:05:30.096Z,984.22
2023-01-08T02:06:30.067Z,984.26
2023-01-08T02:07:30.091Z,984.20
2023-01-08T02:08:30.061Z,984.20
2023-01-08T02:09:30.049Z,984.26
2023-01-08T02:10:30.063Z,984.23
2023-01-08T02:11:30.035Z,984.23
2023-01-08T02:12:30.035Z,984.28
2023-01-08T02:13:31.004Z,984.24
2023-01-08T02:14:30.003Z,984.30
2023-01-08T02:15:29.990Z,984.30
2023-01-08T02:16:30.017Z,984.33
2023-01-08T02:17:29.991Z,984.35
2023-01-08T02:18:29.964Z,984.36
2023-01-08T02:19:29.958Z,984.37
2023-01-08T02:20:29.945Z,984.28
2023-01-08T02:21:29.928Z,984.27
2023-01-08T02:22:29.947Z,984.31
2023-01-08T02:23:29.904Z,984.29
2023-01-08T02:24:30.904Z,984.32
2023-01-08T02:25:29.897Z,984.33
2023-01-08T02:26:29.888Z,984.33
2023-01-08T02:27:29.896Z,984.23
2023-01-08T02:28:29.904Z,984.18
2023-01-08T02:29:29.932Z,984.22
2023-01-08T02:30:29.933Z,984.23
2023-01-08T02:31:29.851Z,984.26
2023-01-08T02:32:29.841Z,984.31
2023-01-08T02:33:29.803Z,984.33
2023-01-08T02:34:29.800Z,984.27
2023-01-08T02:35:29.792Z,984.30
2023-01-08T02:36:29.784Z,984.29
2023-01-08T02:37:29.790Z,984.29
2023-01-08T02:38:29.757Z,984.23
2023-01-08T02:39:29.750Z,984.31
2023-01-08T02:40:29.748Z,984.30
2023-01-08T02:41:29.719Z,984.29
2023-01-08T02:42:29.726Z,984.23
2023-01-08T02:43:30.720Z,984.27
2023-01-08T02:44:29.718Z,984.12
2023-01-08T02:45:29.768Z,984.17
2023-01-08T02:46:29.733Z,984.12
2023-01-08T02:47:29.687Z,984.18
2023-01-08T02:48:29.661Z,984.11
2023-01-08T02:49:29.649Z,984.12
2023-01-08T02:50:29.648Z,984.09
2023-01-08T02:51:29.636Z,984.15
2023-01-08T02:52:29.641Z,984.18
2023-01-08T02:53:29.605Z,984.14
2023-01-08T02:54:29.601Z,984.13
2023-01-08T02:55:29.597Z,984.03
2023-01-08T02:56:29.581Z,984.00
2023-01-08T02:57:29.588Z,984.05
2023-01-08T02:58:29.575Z,983.98
2023-01-08T02:59:29.568Z,983.94
2023-01-08T03:00:29.552Z,983.99
2023-01-08T03:01:29.818Z,984.01
2023-01-08T03:02:29.594Z,984.00
2023-01-08T03:03:29.521Z,983.94
2023-01-08T03:04:29.533Z,983.98
2023-01-08T03:05:29.486Z,983.95
2023-01-08T03:06:29.494Z,983.92
2023-01-08T03:07:29.504Z,983.91
2023-01-08T03:08:29.472Z,983.93
2023-01-08T03:09:29.448Z,983.95
2023-01-08T03:10:29.453Z,983.94
2023-01-08T03:11:29.442Z,983.88
2023-01-08T03:12:29.449Z,983.92
2023-01-08T03:13:29.411Z,983.89
2023-01-08T03:14:29.410Z,983.95
2023-01-08T03:15:29.430Z,983.91
2023-01-08T03:16:29.420Z,983.97
2023-01-08T03:17:29.479Z,983.86
2023-01-08T03:18:29.371Z,983.83
2023-01-08T03:19:29.388Z,983.80
2023-01-08T03:20:29.351Z,983.85
2023-01-08T03:21:29.353Z,983.84
2023-01-08T03:22:29.378Z,983.80
2023-01-08T03:23:29.325Z,983.81
2023-01-08T03:24:29.324Z,983.82
2023-01-08T03:25:29.297Z,983.79
2023-01-08T03:26:29.293Z,983.84
2023-01-08T03:27:29.317Z,983.81
2023-01-08T03:28:29.262Z,983.81
2023-01-08T03:29:29.279Z,983.81
2023-01-08T03:30:29.332Z,983.72
2023-01-08T03:31:29.234Z,983.75
2023-01-08T03:32:29.288Z,983.77
2023-01-08T03:33:29.299Z,983.69
2023-01-08T03:34:29.206Z,983.74
2023-01-08T03:35:29.183Z,983.70
2023-01-08T03:36:29.184Z,983.70
2023-01-08T03:37:29.173Z,983.71
2023-01-08T03:38:29.185Z,983.64
2023-01-08T03:39:29.152Z,983.67
2023-01-08T03:40:29.140Z,983.68
2023-01-08T03:41:29.130Z,983.69
2023-01-08T03:42:29.118Z,983.69
2023-01-08T03:43:29.135Z,983.63
2023-01-08T03:44:29.106Z,983.63
2023-01-08T03:45:29.088Z,983.55
2023-01-08T03:46:29.139Z,983.60
2023-01-08T03:47:29.071Z,983.61
2023-01-08T03:48:29.083Z,983.61
2023-01-08T03:49:29.063Z,983.58
2023-01-08T03:50:29.039Z,983.62
2023-01-08T03:51:29.037Z,983.55
2023-01-08T03:52:29.020Z,983.56
2023-01-08T03:53:29.043Z,983.57
2023-01-08T03:54:29.004Z,983.55
2023-01-08T03:55:29.009Z,983.59
2023-01-08T03:56:28.977Z,983.54
2023-01-08T03:57:28.979Z,983.59
2023-01-08T03:58:28.971Z,983.56
2023-01-08T03:59:28.951Z,983.52
2023-01-08T04:00:28.938Z,983.54
2023-01-08T04:01:29.043Z,983.54
2023-01-08T04:02:29.045Z,983.51
2023-01-08T04:03:28.936Z,983.50
2023-01-08T04:04:28.950Z,983.48
2023-01-08T04:05:28.965Z,983.54
2023-01-08T04:06:28.884Z,983.50
2023-01-08T04:07:28.862Z,983.51
2023-01-08T04:08:28.882Z,983.47
2023-01-08T04:09:28.837Z,983.49
2023-01-08T04:10:28.840Z,983.50
2023-01-08T04:11:28.833Z,983.43
2023-01-08T04:12:29.428Z,983.42
2023-01-08T04:13:29.023Z,983.40
2023-01-08T04:14:28.825Z,983.37
2023-01-08T04:15:28.877Z,983.38
2023-01-08T04:16:28.789Z,983.35
2023-01-08T04:17:28.771Z,983.35
2023-01-08T04:18:28.799Z,983.27
2023-01-08T04:19:28.750Z,983.33
2023-01-08T04:20:28.739Z,983.30
2023-01-08T04:21:28.817Z,983.28
2023-01-08T04:22:28.718Z,983.29
2023-01-08T04:23:28.722Z,983.29
2023-01-08T04:24:28.696Z,983.26
2023-01-08T04:25:28.694Z,983.24
2023-01-08T04:26:28.682Z,983.24
2023-01-08T04:27:28.671Z,983.27
2023-01-08T04:28:28.676Z,983.25
2023-01-08T04:29:28.653Z,983.23
2023-01-08T04:30:28.635Z,983.17
2023-01-08T04:31:28.650Z,983.18
2023-01-08T04:32:29.625Z,983.19
2023-01-08T04:33:28.638Z,983.16
2023-01-08T04:34:28.610Z,983.13
2023-01-08T04:35:28.588Z,983.14
2023-01-08T04:36:28.580Z,983.11
2023-01-08T04:37:28.754Z,983.13
2023-01-08T04:38:28.588Z,983.17
2023-01-08T04:39:28.554Z,983.11
2023-01-08T04:40:28.551Z,983.14
2023-01-08T04:41:28.537Z,983.11
2023-01-08T04:42:28.526Z,983.12
2023-01-08T04:43:28.531Z,983.09
2023-01-08T04:44:28.502Z,983.12
2023-01-08T04:45:28.503Z,983.11
2023-01-08T04:46:28.509Z,983.10
2023-01-08T04:47:28.477Z,983.19
2023-01-08T04:48:28.480Z,983.15
2023-01-08T04:49:28.455Z,983.14
2023-01-08T04:50:28.440Z,983.12
2023-01-08T04:51:28.442Z,983.10
2023-01-08T04:52:28.425Z,983.10
2023-01-08T04:53:28.539Z,983.08
2023-01-08T04:54:28.402Z,983.09
2023-01-08T04:55:28.403Z,983.03
2023-01-08T04:56:28.394Z,982.99
2023-01-08T04:57:28.366Z,982.96
2023-01-08T04:58:28.388Z,982.90
2023-01-08T04:59:28.359Z,982.90
2023-01-08T05:00:28.345Z,982.91
2023-01-08T05:01:28.438Z,982.83
2023-01-08T05:02:28.575Z,982.85
2023-01-08T05:03:28.394Z,982.78
2023-01-08T05:04:28.307Z,982.76
2023-01-08T05:05:28.285Z,982.75
2023-01-08T05:06:28.290Z,982.75
2023-01-08T05:07:28.275Z,982.72
2023-01-08T05:08:28.293Z,982.74
2023-01-08T05:09:28.339Z,982.72
2023-01-08T05:10:28.247Z,982.70
2023-01-08T05:11:28.247Z,982.70
2023-01-08T05:12:28.312Z,982.69
2023-01-08T05:13:28.231Z,982.66
2023-01-08T05:14:28.222Z,982.65
2023-01-08T05:15:28.239Z,982.64
2023-01-08T05:16:28.184Z,982.65
2023-01-08T05:17:28.178Z,982.62
2023-01-08T05:18:28.174Z,982.61
2023-01-08T05:19:28.157Z,982.65
2023-01-08T05:20:28.139Z,982.66
2023-01-08T05:21:28.129Z,982.59
2023-01-08T05:22:28.122Z,982.63
2023-01-08T05:23:28.135Z,982.55
2023-01-08T05:24:28.112Z,982.63
2023-01-08T05:25:28.185Z,982.62
2023-01-08T05:26:28.078Z,982.63
2023-01-08T05:27:28.078Z,982.65
2023-01-08T05:28:28.076Z,982.64
2023-01-08T05:29:28.056Z,982.61
2023-01-08T05:30:28.044Z,982.64
2023-01-08T05:31:28.062Z,982.63
2023-01-08T05:32:28.022Z,982.62
2023-01-08T05:33:28.032Z,982.59
2023-01-08T05:34:28.029Z,982.57
2023-01-08T05:35:28.023Z,982.58
2023-01-08T05:36:27.986Z,982.59
2023-01-08T05:37:27.982Z,982.57
2023-01-08T05:38:27.989Z,982.59
2023-01-08T05:39:27.956Z,982.53
2023-01-08T05:40:27.949Z,982.52
2023-01-08T05:41:28.012Z,982.56
2023-01-08T05:42:27.928Z,982.54
2023-01-08T05:43:27.945Z,982.50
2023-01-08T05:44:27.902Z,982.47
2023-01-08T05:45:27.891Z,982.48
2023-01-08T05:46:27.994Z,982.44
2023-01-08T05:47:27.876Z,982.43
2023-01-08T05:48:27.887Z,982.34
2023-01-08T05:49:27.859Z,982.41
2023-01-08T05:50:27.848Z,982.40
2023-01-08T05:51:27.838Z,982.47
2023-01-08T05:52:27.834Z,982.42
2023-01-08T05:53:27.839Z,982.45
2023-01-08T05:54:27.804Z,982.36
2023-01-08T05:55:27.817Z,982.39
2023-01-08T05:56:27.793Z,982.41
2023-01-08T05:57:27.870Z,982.37
2023-01-08T05:58:27.789Z,982.41
2023-01-08T05:59:27.767Z,982.39
2023-01-08T06:00:27.746Z,982.39
2023-01-08T06:01:27.777Z,982.42
2023-01-08T06:02:27.764Z,982.42
2023-01-08T06:03:27.737Z,982.43
2023-01-08T06:04:27.775Z,982.40
2023-01-08T06:05:27.705Z,982.38
2023-01-08T06:06:27.720Z,982.32
2023-01-08T06:07:27.674Z,982.34
2023-01-08T06:08:27.685Z,982.35
2023-01-08T06:09:27.662Z,982.41
2023-01-08T06:10:27.670Z,982.39
2023-01-08T06:11:27.637Z,982.44
2023-01-08T06:12:27.631Z,982.40
2023-01-08T06:13:27.723Z,982.43
2023-01-08T06:14:27.608Z,982.38
2023-01-08T06:15:27.604Z,982.42
2023-01-08T06:16:27.588Z,982.38
2023-01-08T06:17:27.584Z,982.52
2023-01-08T06:18:27.590Z,982.43
2023-01-08T06:19:27.557Z,982.44
2023-01-08T06:20:27.549Z,982.46
2023-01-08T06:21:27.545Z,982.56
2023-01-08T06:22:27.530Z,982.48
2023-01-08T06:23:27.530Z,982.54
2023-01-08T06:24:27.542Z,982.53
2023-01-08T06:25:40.995Z,982.54
2023-01-08T06:26:27.492Z,982.58
2023-01-08T06:27:27.481Z,982.56
2023-01-08T06:28:27.474Z,982.55
2023-01-08T06:29:27.555Z,982.59
2023-01-08T06:30:27.451Z,982.54
2023-01-08T06:31:28.497Z,982.52
2023-01-08T06:32:27.449Z,982.57
2023-01-08T06:33:27.442Z,982.54
2023-01-08T06:34:27.439Z,982.55
2023-01-08T06:35:27.411Z,982.57
2023-01-08T06:36:27.394Z,982.53
2023-01-08T06:37:27.383Z,982.57
2023-01-08T06:38:27.377Z,982.51
2023-01-08T06:39:27.376Z,982.53
2023-01-08T06:40:27.365Z,982.55
2023-01-08T06:41:27.354Z,982.56
2023-01-08T06:42:27.319Z,982.55
2023-01-08T06:43:27.332Z,982.61
2023-01-08T06:44:27.322Z,982.62
2023-01-08T06:45:27.384Z,982.57
2023-01-08T06:46:27.358Z,982.62
2023-01-08T06:47:27.278Z,982.64
2023-01-08T06:48:27.275Z,982.60
2023-01-08T06:49:27.273Z,982.64
2023-01-08T06:50:27.247Z,982.57
2023-01-08T06:51:27.257Z,982.56
2023-01-08T06:52:27.231Z,982.54
2023-01-08T06:53:27.219Z,982.61
2023-01-08T06:54:27.221Z,982.65
2023-01-08T06:55:27.209Z,982.64
2023-01-08T06:56:27.189Z,982.70
2023-01-08T06:57:27.179Z,982.63
2023-01-08T06:58:27.171Z,982.65
2023-01-08T06:59:27.170Z,982.73
2023-01-08T07:00:27.146Z,982.62
2023-01-08T07:01:27.331Z,982.71
2023-01-08T07:02:27.277Z,982.67
2023-01-08T07:03:27.209Z,982.59
2023-01-08T07:04:27.129Z,982.62
2023-01-08T07:05:27.101Z,982.69
2023-01-08T07:06:27.077Z,982.66
2023-01-08T07:07:27.073Z,982.68
2023-01-08T07:08:27.082Z,982.69
2023-01-08T07:09:27.085Z,982.74
2023-01-08T07:10:27.057Z,982.75
2023-01-08T07:11:27.041Z,982.75
2023-01-08T07:12:27.030Z,982.82
2023-01-08T07:13:27.020Z,982.76
2023-01-08T07:14:27.021Z,982.75
2023-01-08T07:15:28.014Z,982.77
2023-01-08T07:16:27.057Z,982.76
2023-01-08T07:17:27.124Z,982.81
2023-01-08T07:18:27.017Z,982.81
2023-01-08T07:19:26.982Z,982.77
2023-01-08T07:20:26.957Z,982.76
2023-01-08T07:21:26.961Z,982.82
2023-01-08T07:22:26.928Z,982.75
2023-01-08T07:23:26.927Z,982.80
2023-01-08T07:24:26.932Z,982.75
2023-01-08T07:25:26.891Z,982.77
2023-01-08T07:26:26.882Z,982.71
2023-01-08T07:27:26.883Z,982.76
2023-01-08T07:28:26.871Z,982.75
2023-01-08T07:29:26.885Z,982.70
2023-01-08T07:30:30.329Z,982.66
2023-01-08T07:31:26.928Z,982.69
2023-01-08T07:32:26.836Z,982.66
2023-01-08T07:33:26.825Z,982.75
2023-01-08T07:34:26.826Z,982.69
2023-01-08T07:35:26.839Z,982.67
2023-01-08T07:36:26.798Z,982.69
2023-01-08T07:37:26.821Z,982.69
2023-01-08T07:38:26.814Z,982.69
2023-01-08T07:39:26.786Z,982.70
2023-01-08T07:40:26.758Z,982.67
2023-01-08T07:41:26.771Z,982.73
2023-01-08T07:42:26.734Z,982.65
2023-01-08T07:43:26.745Z,982.69
2023-01-08T07:44:26.764Z,982.65
2023-01-08T07:45:26.717Z,982.69
2023-01-08T07:46:26.733Z,982.62
2023-01-08T07:47:26.692Z,982.61
2023-01-08T07:48:26.682Z,982.61
2023-01-08T07:49:26.801Z,982.57
2023-01-08T07:50:26.653Z,982.59
2023-01-08T07:51:26.642Z,982.54
2023-01-08T07:52:26.644Z,982.56
2023-01-08T07:53:26.629Z,982.58
2023-01-08T07:54:26.636Z,982.64
2023-01-08T07:55:26.599Z,982.62
2023-01-08T07:56:26.595Z,982.64
2023-01-08T07:57:26.597Z,982.65
2023-01-08T07:58:26.596Z,982.68
2023-01-08T07:59:26.581Z,982.63
2023-01-08T08:00:26.560Z,982.67
2023-01-08T08:01:26.699Z,982.71
2023-01-08T08:02:26.733Z,982.74
2023-01-08T08:03:26.709Z,982.76
2023-01-08T08:04:26.562Z,982.72
2023-01-08T08:05:26.600Z,982.71
2023-01-08T08:06:26.493Z,982.67
2023-01-08T08:07:26.483Z,982.69
2023-01-08T08:08:26.478Z,982.68
2023-01-08T08:09:26.475Z,982.61
2023-01-08T08:10:26.443Z,982.62
2023-01-08T08:11:26.433Z,982.63
2023-01-08T08:12:26.443Z,982.63
2023-01-08T08:13:26.432Z,982.68
2023-01-08T08:14:26.440Z,982.59
2023-01-08T08:15:26.406Z,982.64
2023-01-08T08:16:26.470Z,982.61
2023-01-08T08:17:26.379Z,982.63
2023-01-08T08:18:26.381Z,982.63
2023-01-08T08:19:26.384Z,982.56
2023-01-08T08:20:26.392Z,982.64
2023-01-08T08:21:26.423Z,982.62
2023-01-08T08:22:26.341Z,982.62
2023-01-08T08:23:26.319Z,982.60
2023-01-08T08:24:26.325Z,982.60
2023-01-08T08:25:26.306Z,982.67
2023-01-08T08:26:26.299Z,982.59
2023-01-08T08:27:26.285Z,982.62
2023-01-08T08:28:26.277Z,982.66
2023-01-08T08:29:26.286Z,982.63
2023-01-08T08:30:26.312Z,982.66
2023-01-08T08:31:26.291Z,982.61
2023-01-08T08:32:26.239Z,982.60
2023-01-08T08:33:26.230Z,982.59
2023-01-08T08:34:26.242Z,982.60
2023-01-08T08:35:26.210Z,982.56
2023-01-08T08:36:26.200Z,982.58
2023-01-08T08:37:26.275Z,982.57
2023-01-08T08:38:26.165Z,982.57
2023-01-08T08:39:26.207Z,982.52
2023-01-08T08:40:26.234Z,982.48
2023-01-08T08:41:26.181Z,982.52
2023-01-08T08:42:26.171Z,982.54
2023-01-08T08:43:26.136Z,982.52
2023-01-08T08:44:26.137Z,982.48
2023-01-08T08:45:26.130Z,982.49
2023-01-08T08:46:26.177Z,982.46
2023-01-08T08:47:26.098Z,982.41
2023-01-08T08:48:26.087Z,982.37
2023-01-08T08:49:26.104Z,982.34
2023-01-08T08:50:26.098Z,982.41
2023-01-08T08:51:26.044Z,982.44
2023-01-08T08:52:26.048Z,982.34
2023-01-08T08:53:27.703Z,982.30
2023-01-08T08:54:27.012Z,982.26
2023-01-08T08:55:25.993Z,982.32
2023-01-08T08:56:26.009Z,982.29
2023-01-08T08:57:25.984Z,982.35
2023-01-08T08:58:25.978Z,982.33
2023-01-08T08:59:25.977Z,982.43
2023-01-08T09:00:25.985Z,982.42
2023-01-08T09:01:26.037Z,982.39
2023-01-08T09:02:26.158Z,982.50
2023-01-08T09:03:25.938Z,982.54
2023-01-08T09:04:25.917Z,982.46
2023-01-08T09:05:25.899Z,982.53
2023-01-08T09:06:25.890Z,982.50
2023-01-08T09:07:25.886Z,982.50
2023-01-08T09:08:25.878Z,982.47
2023-01-08T09:09:25.957Z,982.38
2023-01-08T09:10:25.866Z,982.39
2023-01-08T09:11:25.841Z,982.37
2023-01-08T09:12:25.882Z,982.35
2023-01-08T09:13:25.823Z,982.33
2023-01-08T09:14:25.838Z,982.39
2023-01-08T09:15:25.806Z,982.34
2023-01-08T09:16:25.916Z,982.33
2023-01-08T09:17:25.912Z,982.31
2023-01-08T09:18:25.779Z,982.26
2023-01-08T09:19:25.782Z,982.31
2023-01-08T09:20:25.747Z,982.29
2023-01-08T09:21:25.738Z,982.28
2023-01-08T09:22:25.732Z,982.32
2023-01-08T09:23:25.721Z,982.34
2023-01-08T09:24:25.746Z,982.38
2023-01-08T09:25:25.780Z,982.38
2023-01-08T09:26:25.690Z,982.36
2023-01-08T09:27:25.682Z,982.33
2023-01-08T09:28:25.678Z,982.37
2023-01-08T09:29:25.681Z,982.39
2023-01-08T09:30:25.724Z,982.33
2023-01-08T09:31:25.712Z,982.27
2023-01-08T09:32:25.674Z,982.23
2023-01-08T09:33:25.633Z,982.26
2023-01-08T09:34:25.628Z,982.39
2023-01-08T09:35:25.600Z,982.33
2023-01-08T09:36:25.589Z,982.35
2023-01-08T09:37:25.578Z,982.40
2023-01-08T09:38:26.418Z,982.42
2023-01-08T09:39:25.608Z,982.38
2023-01-08T09:40:25.619Z,982.40
2023-01-08T09:41:25.631Z,982.35
2023-01-08T09:42:25.539Z,982.39
2023-01-08T09:43:25.522Z,982.37
2023-01-08T09:44:25.527Z,982.35
2023-01-08T09:45:27.574Z,982.35
2023-01-08T09:46:25.522Z,982.31
2023-01-08T09:47:25.486Z,982.39
2023-01-08T09:48:25.475Z,982.31
2023-01-08T09:49:25.458Z,982.36
2023-01-08T09:50:25.512Z,982.45
2023-01-08T09:51:25.437Z,982.46
2023-01-08T09:52:25.439Z,982.49
2023-01-08T09:53:25.419Z,982.48
2023-01-08T09:54:25.411Z,982.53
2023-01-08T09:55:25.425Z,982.50
2023-01-08T09:56:25.397Z,982.48
2023-01-08T09:57:25.473Z,982.50
2023-01-08T09:58:25.399Z,982.47
2023-01-08T09:59:25.365Z,982.43
2023-01-08T10:00:25.418Z,982.45
2023-01-08T10:01:25.498Z,982.43
2023-01-08T10:02:25.437Z,982.39
2023-01-08T10:03:25.317Z,982.41
2023-01-08T10:04:25.322Z,982.43
2023-01-08T10:05:25.315Z,982.38
2023-01-08T10:06:25.291Z,982.34
2023-01-08T10:07:25.280Z,982.36
2023-01-08T10:08:25.267Z,982.37
2023-01-08T10:09:25.257Z,982.33
2023-01-08T10:10:25.268Z,982.33
2023-01-08T10:11:25.240Z,982.34
2023-01-08T10:12:25.226Z,982.34
2023-01-08T10:13:25.296Z,982.29
2023-01-08T10:14:25.217Z,982.30
2023-01-08T10:15:25.218Z,982.28
2023-01-08T10:16:25.232Z,982.31
2023-01-08T10:17:25.187Z,982.23
2023-01-08T10:18:25.173Z,982.33
2023-01-08T10:19:25.158Z,982.28
2023-01-08T10:20:25.171Z,982.23
2023-01-08T10:21:25.138Z,982.21
2023-01-08T10:22:25.158Z,982.18
2023-01-08T10:23:25.139Z,982.13
2023-01-08T10:24:25.111Z,982.18
2023-01-08T10:25:25.125Z,982.16
2023-01-08T10:26:25.079Z,982.12
2023-01-08T10:27:25.082Z,982.16
2023-01-08T10:28:25.072Z,982.12
2023-01-08T10:29:25.054Z,982.12
2023-01-08T10:30:25.122Z,982.11
2023-01-08T10:31:25.072Z,982.02
2023-01-08T10:32:25.031Z,982.00
2023-01-08T10:33:25.007Z,982.03
2023-01-08T10:34:26.000Z,982.05
2023-01-08T10:35:25.015Z,982.03
2023-01-08T10:36:24.986Z,982.01
2023-01-08T10:37:25.982Z,981.97
2023-01-08T10:38:24.972Z,981.99
2023-01-08T10:39:24.978Z,981.99
2023-01-08T10:40:24.979Z,981.99
2023-01-08T10:41:24.932Z,981.95
2023-01-08T10:42:24.921Z,981.97
2023-01-08T10:43:24.914Z,981.88
2023-01-08T10:44:24.900Z,981.92
2023-01-08T10:45:24.914Z,981.86
2023-01-08T10:46:24.889Z,981.80
2023-01-08T10:47:24.870Z,981.81
2023-01-08T10:48:24.856Z,981.71
2023-01-08T10:49:24.862Z,981.74
2023-01-08T10:50:24.886Z,981.74
2023-01-08T10:51:24.834Z,981.76
2023-01-08T10:52:24.802Z,981.81
2023-01-08T10:53:24.811Z,981.74
2023-01-08T10:54:24.798Z,981.81
2023-01-08T10:55:24.846Z,981.75
2023-01-08T10:56:24.791Z,981.76
2023-01-08T10:57:24.775Z,981.78
2023-01-08T10:58:24.785Z,981.75
2023-01-08T10:59:24.762Z,981.80
2023-01-08T11:00:24.768Z,981.70
2023-01-08T11:01:24.805Z,981.73
2023-01-08T11:02:24.835Z,981.80
2023-01-08T11:03:24.712Z,981.80
2023-01-08T11:04:24.705Z,981.80
2023-01-08T11:05:24.712Z,981.77
2023-01-08T11:06:24.695Z,981.69
2023-01-08T11:07:24.691Z,981.71
2023-01-08T11:08:24.673Z,981.76
2023-01-08T11:09:24.668Z,981.75
2023-01-08T11:10:24.696Z,981.73
2023-01-08T11:11:24.635Z,981.72
2023-01-08T11:12:24.622Z,981.68
2023-01-08T11:13:24.631Z,981.71
2023-01-08T11:14:24.604Z,981.67
2023-01-08T11:15:24.612Z,981.71
2023-01-08T11:16:24.611Z,981.66
2023-01-08T11:17:24.576Z,981.68
2023-01-08T11:18:24.567Z,981.64
2023-01-08T11:19:24.553Z,981.66
2023-01-08T11:20:24.569Z,981.58
2023-01-08T11:21:24.537Z,981.59
2023-01-08T11:22:24.527Z,981.60
2023-01-08T11:23:24.527Z,981.58
2023-01-08T11:24:24.501Z,981.59
2023-01-08T11:25:24.518Z,981.51
2023-01-08T11:26:24.490Z,981.48
2023-01-08T11:27:24.474Z,981.46
2023-01-08T11:28:24.458Z,981.47
2023-01-08T11:29:24.457Z,981.47
2023-01-08T11:30:24.466Z,981.47
2023-01-08T11:31:24.509Z,981.43
2023-01-08T11:32:24.434Z,981.47
2023-01-08T11:33:24.415Z,981.47
2023-01-08T11:34:24.403Z,981.42
2023-01-08T11:35:24.416Z,981.37
2023-01-08T11:36:24.377Z,981.32
2023-01-08T11:37:24.377Z,981.33
2023-01-08T11:38:24.363Z,981.38
2023-01-08T11:39:24.354Z,981.33
2023-01-08T11:40:24.365Z,981.33
2023-01-08T11:41:25.648Z,981.28
2023-01-08T11:42:25.329Z,981.24
2023-01-08T11:43:24.322Z,981.19
2023-01-08T11:44:24.288Z,981.23
2023-01-08T11:45:24.327Z,981.26
2023-01-08T11:46:24.295Z,981.24
2023-01-08T11:47:24.278Z,981.25
2023-01-08T11:48:24.267Z,981.24
2023-01-08T11:49:24.259Z,981.27
2023-01-08T11:50:24.262Z,981.24
2023-01-08T11:51:24.239Z,981.23
2023-01-08T11:52:24.217Z,981.27
2023-01-08T11:53:24.242Z,981.26
2023-01-08T11:54:24.207Z,981.24
2023-01-08T11:55:24.273Z,981.21
2023-01-08T11:56:24.171Z,981.19
2023-01-08T11:57:24.160Z,981.21
2023-01-08T11:58:24.178Z,981.18
2023-01-08T11:59:24.148Z,981.18
2023-01-08T12:00:24.164Z,981.22
2023-01-08T12:01:24.196Z,981.17
2023-01-08T12:02:24.143Z,981.16
2023-01-08T12:03:24.196Z,981.11
2023-01-08T12:04:24.100Z,981.09
2023-01-08T12:05:24.159Z,981.03
2023-01-08T12:06:24.078Z,981.05
2023-01-08T12:07:24.071Z,980.97
2023-01-08T12:08:24.057Z,981.07
2023-01-08T12:09:24.046Z,981.01
2023-01-08T12:10:24.057Z,980.99
2023-01-08T12:11:24.034Z,980.98
2023-01-08T12:12:24.018Z,980.91
2023-01-08T12:13:24.014Z,980.88
2023-01-08T12:14:23.996Z,980.86
2023-01-08T12:15:23.989Z,980.90
2023-01-08T12:16:24.113Z,980.82
2023-01-08T12:17:24.937Z,980.85
2023-01-08T12:18:24.968Z,980.87
2023-01-08T12:19:23.942Z,980.84
2023-01-08T12:20:23.935Z,980.79
2023-01-08T12:21:23.945Z,980.73
2023-01-08T12:22:23.917Z,980.79
2023-01-08T12:23:23.903Z,980.71
2023-01-08T12:24:23.884Z,980.73
2023-01-08T12:25:23.890Z,980.71
2023-01-08T12:26:23.915Z,980.69
2023-01-08T12:27:40.828Z,980.69
2023-01-08T12:28:25.865Z,980.64